sensor_id;sensor_type;location;lat;lon;timestamp;P1;durP1;ratioP1;P2;durP2;ratioP2
80272;SDS011;69574;45.328;9.598;2023-10-09T00:00:12;26.80;;;15.10;;
80272;SDS011;69574;45.328;9.598;2023-10-09T00:02:58;26.25;;;15.80;;
80272;SDS011;69574;45.328;9.598;2023-10-09T00:05:26;25.38;;;15.98;;
80272;SDS011;69574;45.328;9.598;2023-10-09T00:08:04;28.52;;;15.98;;
80272;SDS011;69574;45.328;9.598;2023-10-09T00:10:30;25.77;;;14.93;;
80272;SDS011;69574;45.328;9.598;2023-10-09T00:13:10;23.60;;;15.38;;
80272;SDS011;69574;45.328;9.598;2023-10-09T00:15:36;26.73;;;15.95;;
80272;SDS011;69574;45.328;9.598;2023-10-09T00:18:03;24.65;;;15.65;;
80272;SDS011;69574;45.328;9.598;2023-10-09T00:20:33;24.80;;;14.52;;
80272;SDS011;69574;45.328;9.598;2023-10-09T00:25:35;24.80;;;14.48;;
80272;SDS011;69574;45.328;9.598;2023-10-09T00:28:01;26.33;;;14.43;;
80272;SDS011;69574;45.328;9.598;2023-10-09T00:30:30;20.75;;;14.10;;
80272;SDS011;69574;45.328;9.598;2023-10-09T00:32:56;28.52;;;15.40;;
80272;SDS011;69574;45.328;9.598;2023-10-09T00:35:27;24.00;;;14.82;;
80272;SDS011;69574;45.328;9.598;2023-10-09T00:38:02;25.88;;;14.80;;
80272;SDS011;69574;45.328;9.598;2023-10-09T00:40:32;27.52;;;15.18;;
80272;SDS011;69574;45.328;9.598;2023-10-09T00:43:00;23.85;;;14.77;;
80272;SDS011;69574;45.328;9.598;2023-10-09T00:45:36;27.20;;;15.45;;
80272;SDS011;69574;45.328;9.598;2023-10-09T00:48:05;25.58;;;15.10;;
80272;SDS011;69574;45.328;9.598;2023-10-09T00:50:33;27.45;;;15.10;;
80272;SDS011;69574;45.328;9.598;2023-10-09T00:53:01;25.10;;;14.30;;
80272;SDS011;69574;45.328;9.598;2023-10-09T00:55:28;24.40;;;14.73;;
80272;SDS011;69574;45.328;9.598;2023-10-09T00:58:09;23.67;;;14.88;;
80272;SDS011;69574;45.328;9.598;2023-10-09T01:00:37;24.50;;;14.05;;
80272;SDS011;69574;45.328;9.598;2023-10-09T01:03:09;21.35;;;13.32;;
80272;SDS011;69574;45.328;9.598;2023-10-09T01:05:43;25.33;;;14.57;;
80272;SDS011;69574;45.328;9.598;2023-10-09T01:08:16;20.33;;;12.75;;
80272;SDS011;69574;45.328;9.598;2023-10-09T01:10:50;22.42;;;13.98;;
80272;SDS011;69574;45.328;9.598;2023-10-09T01:13:21;26.17;;;14.10;;
80272;SDS011;69574;45.328;9.598;2023-10-09T01:15:52;23.83;;;13.40;;
80272;SDS011;69574;45.328;9.598;2023-10-09T01:18:18;24.83;;;14.45;;
80272;SDS011;69574;45.328;9.598;2023-10-09T01:20:46;23.42;;;13.18;;
80272;SDS011;69574;45.328;9.598;2023-10-09T01:23:13;24.25;;;14.38;;
80272;SDS011;69574;45.328;9.598;2023-10-09T01:25:40;23.45;;;13.55;;
80272;SDS011;69574;45.328;9.598;2023-10-09T01:28:15;22.60;;;13.43;;
80272;SDS011;69574;45.328;9.598;2023-10-09T01:30:41;22.88;;;14.00;;
80272;SDS011;69574;45.328;9.598;2023-10-09T01:35:37;22.70;;;13.18;;
80272;SDS011;69574;45.328;9.598;2023-10-09T01:38:14;21.42;;;12.82;;
80272;SDS011;69574;45.328;9.598;2023-10-09T01:40:40;21.08;;;12.80;;
80272;SDS011;69574;45.328;9.598;2023-10-09T01:43:06;25.73;;;14.10;;
80272;SDS011;69574;45.328;9.598;2023-10-09T01:45:35;23.40;;;13.70;;
80272;SDS011;69574;45.328;9.598;2023-10-09T01:48:07;21.25;;;13.10;;
80272;SDS011;69574;45.328;9.598;2023-10-09T01:50:33;24.08;;;12.85;;
80272;SDS011;69574;45.328;9.598;2023-10-09T01:53:00;23.15;;;13.10;;
80272;SDS011;69574;45.328;9.598;2023-10-09T01:55:29;25.50;;;13.18;;
80272;SDS011;69574;45.328;9.598;2023-10-09T01:58:00;21.52;;;13.13;;
80272;SDS011;69574;45.328;9.598;2023-10-09T02:00:30;19.20;;;13.15;;
80272;SDS011;69574;45.328;9.598;2023-10-09T02:02:56;22.45;;;12.68;;
80272;SDS011;69574;45.328;9.598;2023-10-09T02:05:28;23.92;;;12.18;;
80272;SDS011;69574;45.328;9.598;2023-10-09T02:07:58;22.70;;;12.55;;
80272;SDS011;69574;45.328;9.598;2023-10-09T02:10:24;19.80;;;11.70;;
80272;SDS011;69574;45.328;9.598;2023-10-09T02:12:51;22.42;;;12.20;;
80272;SDS011;69574;45.328;9.598;2023-10-09T02:15:23;20.15;;;11.70;;
80272;SDS011;69574;45.328;9.598;2023-10-09T02:18:15;21.00;;;12.48;;
80272;SDS011;69574;45.328;9.598;2023-10-09T02:20:44;22.92;;;11.30;;
80272;SDS011;69574;45.328;9.598;2023-10-09T02:23:33;19.75;;;11.57;;
80272;SDS011;69574;45.328;9.598;2023-10-09T02:26:05;20.38;;;11.45;;
80272;SDS011;69574;45.328;9.598;2023-10-09T02:28:33;23.70;;;11.57;;
80272;SDS011;69574;45.328;9.598;2023-10-09T02:30:59;19.38;;;11.65;;
80272;SDS011;69574;45.328;9.598;2023-10-09T02:33:35;19.98;;;10.88;;
80272;SDS011;69574;45.328;9.598;2023-10-09T02:36:01;20.30;;;11.27;;
80272;SDS011;69574;45.328;9.598;2023-10-09T02:38:30;18.08;;;11.55;;
80272;SDS011;69574;45.328;9.598;2023-10-09T02:40:59;20.30;;;12.30;;
80272;SDS011;69574;45.328;9.598;2023-10-09T02:43:27;20.38;;;11.48;;
80272;SDS011;69574;45.328;9.598;2023-10-09T02:45:55;21.00;;;12.18;;
80272;SDS011;69574;45.328;9.598;2023-10-09T02:48:20;19.10;;;10.95;;
80272;SDS011;69574;45.328;9.598;2023-10-09T02:50:50;20.58;;;10.52;;
80272;SDS011;69574;45.328;9.598;2023-10-09T02:53:16;23.50;;;11.65;;
80272;SDS011;69574;45.328;9.598;2023-10-09T02:55:54;21.33;;;10.93;;
80272;SDS011;69574;45.328;9.598;2023-10-09T02:58:37;19.15;;;9.82;;
80272;SDS011;69574;45.328;9.598;2023-10-09T03:01:10;17.70;;;10.15;;
80272;SDS011;69574;45.328;9.598;2023-10-09T03:03:36;20.15;;;10.13;;
80272;SDS011;69574;45.328;9.598;2023-10-09T03:06:03;20.95;;;10.85;;
80272;SDS011;69574;45.328;9.598;2023-10-09T03:08:36;22.67;;;10.45;;
80272;SDS011;69574;45.328;9.598;2023-10-09T03:11:02;18.75;;;10.35;;
80272;SDS011;69574;45.328;9.598;2023-10-09T03:13:28;20.48;;;10.45;;
80272;SDS011;69574;45.328;9.598;2023-10-09T03:15:54;18.00;;;9.95;;
80272;SDS011;69574;45.328;9.598;2023-10-09T03:18:21;19.85;;;10.50;;
80272;SDS011;69574;45.328;9.598;2023-10-09T03:20:47;16.75;;;10.07;;
80272;SDS011;69574;45.328;9.598;2023-10-09T03:23:13;20.42;;;10.35;;
80272;SDS011;69574;45.328;9.598;2023-10-09T03:25:39;20.83;;;10.07;;
80272;SDS011;69574;45.328;9.598;2023-10-09T03:28:05;21.17;;;11.35;;
80272;SDS011;69574;45.328;9.598;2023-10-09T03:30:32;18.65;;;9.63;;
80272;SDS011;69574;45.328;9.598;2023-10-09T03:32:58;18.20;;;10.25;;
80272;SDS011;69574;45.328;9.598;2023-10-09T03:35:27;23.25;;;10.63;;
80272;SDS011;69574;45.328;9.598;2023-10-09T03:37:53;20.00;;;10.07;;
80272;SDS011;69574;45.328;9.598;2023-10-09T03:40:22;19.48;;;10.35;;
80272;SDS011;69574;45.328;9.598;2023-10-09T03:42:48;16.77;;;9.95;;
80272;SDS011;69574;45.328;9.598;2023-10-09T03:45:14;16.92;;;9.80;;
80272;SDS011;69574;45.328;9.598;2023-10-09T03:47:53;16.67;;;9.27;;
80272;SDS011;69574;45.328;9.598;2023-10-09T03:50:28;19.42;;;9.68;;
80272;SDS011;69574;45.328;9.598;2023-10-09T03:53:03;19.92;;;10.15;;
80272;SDS011;69574;45.328;9.598;2023-10-09T03:55:33;22.13;;;9.57;;
80272;SDS011;69574;45.328;9.598;2023-10-09T03:57:59;18.77;;;9.15;;
80272;SDS011;69574;45.328;9.598;2023-10-09T04:00:27;21.13;;;9.10;;
80272;SDS011;69574;45.328;9.598;2023-10-09T04:02:54;17.88;;;9.48;;
80272;SDS011;69574;45.328;9.598;2023-10-09T04:05:19;16.38;;;8.82;;
80272;SDS011;69574;45.328;9.598;2023-10-09T04:07:47;26.30;;;9.65;;
80272;SDS011;69574;45.328;9.598;2023-10-09T04:10:14;20.42;;;9.30;;
80272;SDS011;69574;45.328;9.598;2023-10-09T04:12:58;25.08;;;9.00;;
80272;SDS011;69574;45.328;9.598;2023-10-09T04:15:25;19.17;;;9.10;;
80272;SDS011;69574;45.328;9.598;2023-10-09T04:17:55;18.33;;;8.43;;
80272;SDS011;69574;45.328;9.598;2023-10-09T04:20:22;18.33;;;7.93;;
80272;SDS011;69574;45.328;9.598;2023-10-09T04:22:49;15.63;;;7.80;;
80272;SDS011;69574;45.328;9.598;2023-10-09T04:25:30;15.02;;;7.07;;
80272;SDS011;69574;45.328;9.598;2023-10-09T04:28:06;17.40;;;6.57;;
80272;SDS011;69574;45.328;9.598;2023-10-09T04:30:34;15.52;;;7.38;;
80272;SDS011;69574;45.328;9.598;2023-10-09T04:33:05;18.38;;;7.30;;
80272;SDS011;69574;45.328;9.598;2023-10-09T04:35:36;15.52;;;7.20;;
80272;SDS011;69574;45.328;9.598;2023-10-09T04:38:05;16.33;;;7.25;;
80272;SDS011;69574;45.328;9.598;2023-10-09T04:40:31;18.85;;;7.15;;
80272;SDS011;69574;45.328;9.598;2023-10-09T04:43:03;19.17;;;7.47;;
80272;SDS011;69574;45.328;9.598;2023-10-09T04:45:34;17.05;;;6.88;;
80272;SDS011;69574;45.328;9.598;2023-10-09T04:48:09;16.55;;;6.40;;
80272;SDS011;69574;45.328;9.598;2023-10-09T04:50:35;14.82;;;5.93;;
80272;SDS011;69574;45.328;9.598;2023-10-09T04:53:01;13.15;;;7.10;;
80272;SDS011;69574;45.328;9.598;2023-10-09T04:55:40;19.23;;;6.80;;
80272;SDS011;69574;45.328;9.598;2023-10-09T04:58:09;70.45;;;12.77;;
80272;SDS011;69574;45.328;9.598;2023-10-09T05:00:49;31.85;;;8.90;;
80272;SDS011;69574;45.328;9.598;2023-10-09T05:03:29;26.77;;;7.50;;
80272;SDS011;69574;45.328;9.598;2023-10-09T05:08:51;22.52;;;6.82;;
80272;SDS011;69574;45.328;9.598;2023-10-09T05:11:21;21.05;;;6.97;;
80272;SDS011;69574;45.328;9.598;2023-10-09T05:14:01;27.67;;;7.57;;
80272;SDS011;69574;45.328;9.598;2023-10-09T05:16:39;22.33;;;7.97;;
80272;SDS011;69574;45.328;9.598;2023-10-09T05:19:20;15.25;;;6.78;;
80272;SDS011;69574;45.328;9.598;2023-10-09T05:21:55;16.40;;;7.03;;
80272;SDS011;69574;45.328;9.598;2023-10-09T05:24:23;31.15;;;8.70;;
80272;SDS011;69574;45.328;9.598;2023-10-09T05:26:53;15.10;;;7.22;;
80272;SDS011;69574;45.328;9.598;2023-10-09T05:29:19;16.00;;;6.70;;
80272;SDS011;69574;45.328;9.598;2023-10-09T05:31:49;16.23;;;7.07;;
80272;SDS011;69574;45.328;9.598;2023-10-09T05:34:30;23.85;;;6.72;;
80272;SDS011;69574;45.328;9.598;2023-10-09T05:36:59;17.75;;;6.55;;
80272;SDS011;69574;45.328;9.598;2023-10-09T05:39:42;20.50;;;6.22;;
80272;SDS011;69574;45.328;9.598;2023-10-09T05:42:10;15.75;;;6.30;;
80272;SDS011;69574;45.328;9.598;2023-10-09T05:44:43;16.13;;;6.45;;
80272;SDS011;69574;45.328;9.598;2023-10-09T05:47:27;14.43;;;6.43;;
80272;SDS011;69574;45.328;9.598;2023-10-09T05:49:52;16.95;;;6.55;;
80272;SDS011;69574;45.328;9.598;2023-10-09T05:52:30;19.13;;;7.55;;
80272;SDS011;69574;45.328;9.598;2023-10-09T05:55:05;23.25;;;8.25;;
80272;SDS011;69574;45.328;9.598;2023-10-09T05:57:44;24.02;;;7.88;;
80272;SDS011;69574;45.328;9.598;2023-10-09T06:00:28;43.22;;;10.50;;
80272;SDS011;69574;45.328;9.598;2023-10-09T06:03:12;37.45;;;11.20;;
80272;SDS011;69574;45.328;9.598;2023-10-09T06:05:44;27.77;;;8.85;;
80272;SDS011;69574;45.328;9.598;2023-10-09T06:08:21;21.27;;;8.55;;
80272;SDS011;69574;45.328;9.598;2023-10-09T06:10:52;27.83;;;8.75;;
80272;SDS011;69574;45.328;9.598;2023-10-09T06:13:40;44.03;;;11.65;;
80272;SDS011;69574;45.328;9.598;2023-10-09T06:16:12;40.92;;;9.88;;
80272;SDS011;69574;45.328;9.598;2023-10-09T06:19:06;23.13;;;8.93;;
80272;SDS011;69574;45.328;9.598;2023-10-09T06:21:37;20.83;;;7.50;;
80272;SDS011;69574;45.328;9.598;2023-10-09T06:24:19;24.27;;;7.55;;
80272;SDS011;69574;45.328;9.598;2023-10-09T06:26:45;21.50;;;6.75;;
80272;SDS011;69574;45.328;9.598;2023-10-09T06:29:25;19.02;;;6.82;;
80272;SDS011;69574;45.328;9.598;2023-10-09T06:32:02;21.35;;;7.72;;
80272;SDS011;69574;45.328;9.598;2023-10-09T06:34:43;23.73;;;7.95;;
80272;SDS011;69574;45.328;9.598;2023-10-09T06:37:17;21.92;;;7.75;;
80272;SDS011;69574;45.328;9.598;2023-10-09T06:39:49;17.45;;;7.50;;
80272;SDS011;69574;45.328;9.598;2023-10-09T06:42:20;28.23;;;7.53;;
80272;SDS011;69574;45.328;9.598;2023-10-09T06:45:01;21.13;;;7.22;;
80272;SDS011;69574;45.328;9.598;2023-10-09T06:47:40;17.63;;;6.90;;
80272;SDS011;69574;45.328;9.598;2023-10-09T06:50:07;16.17;;;6.30;;
80272;SDS011;69574;45.328;9.598;2023-10-09T06:52:47;19.00;;;6.80;;
80272;SDS011;69574;45.328;9.598;2023-10-09T06:55:22;20.13;;;6.80;;
80272;SDS011;69574;45.328;9.598;2023-10-09T06:57:58;20.23;;;6.72;;
80272;SDS011;69574;45.328;9.598;2023-10-09T07:00:28;21.77;;;7.55;;
80272;SDS011;69574;45.328;9.598;2023-10-09T07:03:12;17.67;;;6.75;;
80272;SDS011;69574;45.328;9.598;2023-10-09T07:05:37;24.33;;;6.90;;
80272;SDS011;69574;45.328;9.598;2023-10-09T07:08:23;21.70;;;6.93;;
80272;SDS011;69574;45.328;9.598;2023-10-09T07:10:57;16.45;;;5.78;;
80272;SDS011;69574;45.328;9.598;2023-10-09T07:13:43;19.75;;;6.22;;
80272;SDS011;69574;45.328;9.598;2023-10-09T07:16:21;26.63;;;6.85;;
80272;SDS011;69574;45.328;9.598;2023-10-09T07:18:53;23.20;;;6.75;;
80272;SDS011;69574;45.328;9.598;2023-10-09T07:23:53;17.75;;;6.00;;
80272;SDS011;69574;45.328;9.598;2023-10-09T07:26:22;20.58;;;6.53;;
80272;SDS011;69574;45.328;9.598;2023-10-09T07:29:03;16.75;;;6.40;;
80272;SDS011;69574;45.328;9.598;2023-10-09T07:31:43;24.05;;;6.35;;
80272;SDS011;69574;45.328;9.598;2023-10-09T07:34:11;18.55;;;6.55;;
80272;SDS011;69574;45.328;9.598;2023-10-09T07:36:55;17.23;;;6.60;;
80272;SDS011;69574;45.328;9.598;2023-10-09T07:39:22;18.23;;;6.97;;
80272;SDS011;69574;45.328;9.598;2023-10-09T07:41:48;16.60;;;6.43;;
80272;SDS011;69574;45.328;9.598;2023-10-09T07:44:27;21.15;;;7.03;;
80272;SDS011;69574;45.328;9.598;2023-10-09T07:47:09;18.65;;;6.43;;
80272;SDS011;69574;45.328;9.598;2023-10-09T07:49:53;22.20;;;6.68;;
80272;SDS011;69574;45.328;9.598;2023-10-09T07:52:20;19.40;;;6.57;;
80272;SDS011;69574;45.328;9.598;2023-10-09T07:54:49;23.33;;;6.72;;
80272;SDS011;69574;45.328;9.598;2023-10-09T07:57:27;14.95;;;6.25;;
80272;SDS011;69574;45.328;9.598;2023-10-09T08:00:03;19.05;;;7.10;;
80272;SDS011;69574;45.328;9.598;2023-10-09T08:02:59;23.60;;;6.93;;
80272;SDS011;69574;45.328;9.598;2023-10-09T08:05:25;20.88;;;7.43;;
80272;SDS011;69574;45.328;9.598;2023-10-09T08:07:58;35.92;;;8.57;;
80272;SDS011;69574;45.328;9.598;2023-10-09T08:10:43;21.85;;;6.47;;
80272;SDS011;69574;45.328;9.598;2023-10-09T08:13:28;18.58;;;5.75;;
80272;SDS011;69574;45.328;9.598;2023-10-09T08:16:12;15.07;;;5.75;;
80272;SDS011;69574;45.328;9.598;2023-10-09T08:18:47;19.45;;;6.50;;
80272;SDS011;69574;45.328;9.598;2023-10-09T08:21:16;19.77;;;5.35;;
80272;SDS011;69574;45.328;9.598;2023-10-09T08:23:41;37.35;;;6.53;;
80272;SDS011;69574;45.328;9.598;2023-10-09T08:26:13;34.25;;;6.80;;
80272;SDS011;69574;45.328;9.598;2023-10-09T08:28:39;17.20;;;5.20;;
80272;SDS011;69574;45.328;9.598;2023-10-09T08:31:08;18.52;;;5.13;;
80272;SDS011;69574;45.328;9.598;2023-10-09T08:33:44;18.35;;;4.63;;
80272;SDS011;69574;45.328;9.598;2023-10-09T08:36:11;14.82;;;4.88;;
80272;SDS011;69574;45.328;9.598;2023-10-09T08:38:43;22.92;;;4.45;;
80272;SDS011;69574;45.328;9.598;2023-10-09T08:41:12;15.48;;;4.10;;
80272;SDS011;69574;45.328;9.598;2023-10-09T08:43:47;21.83;;;5.05;;
80272;SDS011;69574;45.328;9.598;2023-10-09T08:46:13;14.82;;;4.70;;
80272;SDS011;69574;45.328;9.598;2023-10-09T08:48:43;19.15;;;4.70;;
80272;SDS011;69574;45.328;9.598;2023-10-09T08:51:10;13.68;;;4.68;;
80272;SDS011;69574;45.328;9.598;2023-10-09T08:53:36;15.73;;;4.35;;
80272;SDS011;69574;45.328;9.598;2023-10-09T08:56:09;16.73;;;4.78;;
80272;SDS011;69574;45.328;9.598;2023-10-09T08:58:47;17.42;;;4.22;;
80272;SDS011;69574;45.328;9.598;2023-10-09T09:01:15;15.93;;;5.40;;
80272;SDS011;69574;45.328;9.598;2023-10-09T09:03:42;20.55;;;5.63;;
80272;SDS011;69574;45.328;9.598;2023-10-09T09:06:12;19.55;;;5.05;;
80272;SDS011;69574;45.328;9.598;2023-10-09T09:08:39;23.50;;;5.55;;
80272;SDS011;69574;45.328;9.598;2023-10-09T09:11:07;21.00;;;6.32;;
80272;SDS011;69574;45.328;9.598;2023-10-09T09:14:00;22.63;;;5.28;;
80272;SDS011;69574;45.328;9.598;2023-10-09T09:16:30;19.67;;;4.63;;
80272;SDS011;69574;45.328;9.598;2023-10-09T09:18:56;28.95;;;5.63;;
80272;SDS011;69574;45.328;9.598;2023-10-09T09:21:37;24.25;;;5.45;;
80272;SDS011;69574;45.328;9.598;2023-10-09T09:24:05;17.98;;;4.70;;
80272;SDS011;69574;45.328;9.598;2023-10-09T09:26:41;17.23;;;4.75;;
80272;SDS011;69574;45.328;9.598;2023-10-09T09:29:10;22.42;;;5.63;;
80272;SDS011;69574;45.328;9.598;2023-10-09T09:31:36;18.15;;;4.97;;
80272;SDS011;69574;45.328;9.598;2023-10-09T09:34:07;17.73;;;4.60;;
80272;SDS011;69574;45.328;9.598;2023-10-09T09:39:05;22.23;;;4.60;;
80272;SDS011;69574;45.328;9.598;2023-10-09T09:41:44;19.17;;;4.28;;
80272;SDS011;69574;45.328;9.598;2023-10-09T09:44:10;16.75;;;3.85;;
80272;SDS011;69574;45.328;9.598;2023-10-09T09:46:40;20.35;;;4.63;;
80272;SDS011;69574;45.328;9.598;2023-10-09T09:49:07;15.15;;;4.25;;
80272;SDS011;69574;45.328;9.598;2023-10-09T09:51:42;25.00;;;4.88;;
80272;SDS011;69574;45.328;9.598;2023-10-09T09:54:09;13.27;;;4.20;;
80272;SDS011;69574;45.328;9.598;2023-10-09T09:56:36;14.98;;;3.90;;
80272;SDS011;69574;45.328;9.598;2023-10-09T09:59:04;21.52;;;4.38;;
80272;SDS011;69574;45.328;9.598;2023-10-09T10:01:33;18.40;;;4.45;;
80272;SDS011;69574;45.328;9.598;2023-10-09T10:04:03;16.50;;;4.60;;
80272;SDS011;69574;45.328;9.598;2023-10-09T10:06:30;15.98;;;4.00;;
80272;SDS011;69574;45.328;9.598;2023-10-09T10:08:57;14.73;;;3.83;;
80272;SDS011;69574;45.328;9.598;2023-10-09T10:11:42;14.70;;;4.10;;
80272;SDS011;69574;45.328;9.598;2023-10-09T10:14:12;19.80;;;4.57;;
80272;SDS011;69574;45.328;9.598;2023-10-09T10:17:00;15.38;;;3.80;;
80272;SDS011;69574;45.328;9.598;2023-10-09T10:19:27;21.60;;;3.72;;
80272;SDS011;69574;45.328;9.598;2023-10-09T10:22:22;30.25;;;4.28;;
80272;SDS011;69574;45.328;9.598;2023-10-09T10:24:48;17.35;;;4.35;;
80272;SDS011;69574;45.328;9.598;2023-10-09T10:27:19;16.65;;;3.65;;
80272;SDS011;69574;45.328;9.598;2023-10-09T10:32:41;11.60;;;3.17;;
80272;SDS011;69574;45.328;9.598;2023-10-09T10:35:22;16.40;;;3.72;;
80272;SDS011;69574;45.328;9.598;2023-10-09T10:38:27;20.02;;;3.85;;
80272;SDS011;69574;45.328;9.598;2023-10-09T10:41:12;17.05;;;3.72;;
80272;SDS011;69574;45.328;9.598;2023-10-09T10:43:41;21.02;;;3.95;;
80272;SDS011;69574;45.328;9.598;2023-10-09T10:46:15;19.10;;;3.75;;
80272;SDS011;69574;45.328;9.598;2023-10-09T10:48:55;18.70;;;3.80;;
80272;SDS011;69574;45.328;9.598;2023-10-09T10:51:41;13.93;;;3.78;;
80272;SDS011;69574;45.328;9.598;2023-10-09T10:54:19;12.90;;;3.53;;
80272;SDS011;69574;45.328;9.598;2023-10-09T10:59:24;18.77;;;4.18;;
80272;SDS011;69574;45.328;9.598;2023-10-09T11:01:51;18.10;;;4.65;;
80272;SDS011;69574;45.328;9.598;2023-10-09T11:04:26;11.40;;;3.85;;
80272;SDS011;69574;45.328;9.598;2023-10-09T11:06:55;16.13;;;4.25;;
80272;SDS011;69574;45.328;9.598;2023-10-09T11:09:26;15.55;;;4.20;;
80272;SDS011;69574;45.328;9.598;2023-10-09T11:12:04;17.80;;;3.80;;
80272;SDS011;69574;45.328;9.598;2023-10-09T11:14:45;17.63;;;4.43;;
80272;SDS011;69574;45.328;9.598;2023-10-09T11:17:30;17.75;;;4.72;;
80272;SDS011;69574;45.328;9.598;2023-10-09T11:19:56;16.08;;;4.07;;
80272;SDS011;69574;45.328;9.598;2023-10-09T11:22:22;14.02;;;3.95;;
80272;SDS011;69574;45.328;9.598;2023-10-09T11:24:54;14.50;;;4.35;;
80272;SDS011;69574;45.328;9.598;2023-10-09T11:27:46;19.67;;;4.38;;
80272;SDS011;69574;45.328;9.598;2023-10-09T11:30:17;19.00;;;4.75;;
80272;SDS011;69574;45.328;9.598;2023-10-09T11:33:06;18.80;;;4.03;;
80272;SDS011;69574;45.328;9.598;2023-10-09T11:35:39;17.75;;;4.38;;
80272;SDS011;69574;45.328;9.598;2023-10-09T11:38:06;12.90;;;3.90;;
80272;SDS011;69574;45.328;9.598;2023-10-09T11:40:46;18.10;;;4.50;;
80272;SDS011;69574;45.328;9.598;2023-10-09T11:43:18;16.00;;;3.60;;
80272;SDS011;69574;45.328;9.598;2023-10-09T11:45:52;14.88;;;3.92;;
80272;SDS011;69574;45.328;9.598;2023-10-09T11:48:21;12.65;;;4.20;;
80272;SDS011;69574;45.328;9.598;2023-10-09T11:51:12;15.57;;;4.03;;
80272;SDS011;69574;45.328;9.598;2023-10-09T11:53:46;16.83;;;4.10;;
80272;SDS011;69574;45.328;9.598;2023-10-09T11:56:15;14.38;;;3.75;;
80272;SDS011;69574;45.328;9.598;2023-10-09T11:58:46;15.30;;;4.35;;
80272;SDS011;69574;45.328;9.598;2023-10-09T12:01:16;14.10;;;3.63;;
80272;SDS011;69574;45.328;9.598;2023-10-09T12:03:45;12.65;;;3.58;;
80272;SDS011;69574;45.328;9.598;2023-10-09T12:06:18;23.85;;;4.70;;
80272;SDS011;69574;45.328;9.598;2023-10-09T12:08:49;18.83;;;4.07;;
80272;SDS011;69574;45.328;9.598;2023-10-09T12:11:15;19.42;;;4.40;;
80272;SDS011;69574;45.328;9.598;2023-10-09T12:13:47;13.82;;;3.72;;
80272;SDS011;69574;45.328;9.598;2023-10-09T12:16:13;13.18;;;3.80;;
80272;SDS011;69574;45.328;9.598;2023-10-09T12:18:42;12.70;;;3.28;;
80272;SDS011;69574;45.328;9.598;2023-10-09T12:21:08;15.52;;;3.35;;
80272;SDS011;69574;45.328;9.598;2023-10-09T12:23:34;15.23;;;3.90;;
80272;SDS011;69574;45.328;9.598;2023-10-09T12:26:02;17.83;;;4.03;;
80272;SDS011;69574;45.328;9.598;2023-10-09T12:28:28;21.08;;;4.07;;
80272;SDS011;69574;45.328;9.598;2023-10-09T12:30:55;27.38;;;5.28;;
80272;SDS011;69574;45.328;9.598;2023-10-09T12:33:21;25.55;;;4.55;;
80272;SDS011;69574;45.328;9.598;2023-10-09T12:35:57;18.33;;;3.85;;
80272;SDS011;69574;45.328;9.598;2023-10-09T12:38:26;26.48;;;4.90;;
80272;SDS011;69574;45.328;9.598;2023-10-09T12:41:00;25.63;;;4.68;;
80272;SDS011;69574;45.328;9.598;2023-10-09T12:43:32;21.27;;;4.55;;
80272;SDS011;69574;45.328;9.598;2023-10-09T12:46:04;18.48;;;3.85;;
80272;SDS011;69574;45.328;9.598;2023-10-09T12:48:31;18.17;;;4.03;;
80272;SDS011;69574;45.328;9.598;2023-10-09T12:50:58;19.13;;;3.63;;
80272;SDS011;69574;45.328;9.598;2023-10-09T12:53:31;12.73;;;3.92;;
80272;SDS011;69574;45.328;9.598;2023-10-09T12:55:56;12.82;;;3.72;;
80272;SDS011;69574;45.328;9.598;2023-10-09T12:58:22;11.82;;;3.55;;
80272;SDS011;69574;45.328;9.598;2023-10-09T13:00:48;23.63;;;4.20;;
80272;SDS011;69574;45.328;9.598;2023-10-09T13:03:16;21.80;;;4.72;;
80272;SDS011;69574;45.328;9.598;2023-10-09T13:08:18;15.27;;;3.47;;
80272;SDS011;69574;45.328;9.598;2023-10-09T13:10:46;16.55;;;3.88;;
80272;SDS011;69574;45.328;9.598;2023-10-09T13:13:12;17.10;;;4.25;;
80272;SDS011;69574;45.328;9.598;2023-10-09T13:15:37;15.05;;;3.95;;
80272;SDS011;69574;45.328;9.598;2023-10-09T13:18:08;13.88;;;3.90;;
80272;SDS011;69574;45.328;9.598;2023-10-09T13:20:33;15.68;;;4.03;;
80272;SDS011;69574;45.328;9.598;2023-10-09T13:23:00;12.95;;;3.75;;
80272;SDS011;69574;45.328;9.598;2023-10-09T13:25:28;15.82;;;4.25;;
80272;SDS011;69574;45.328;9.598;2023-10-09T13:28:04;16.45;;;4.43;;
80272;SDS011;69574;45.328;9.598;2023-10-09T13:30:30;20.17;;;4.40;;
80272;SDS011;69574;45.328;9.598;2023-10-09T13:33:04;15.38;;;3.83;;
80272;SDS011;69574;45.328;9.598;2023-10-09T13:35:30;11.38;;;3.80;;
80272;SDS011;69574;45.328;9.598;2023-10-09T13:38:03;18.05;;;4.25;;
80272;SDS011;69574;45.328;9.598;2023-10-09T13:40:34;16.17;;;4.47;;
80272;SDS011;69574;45.328;9.598;2023-10-09T13:43:02;17.40;;;3.78;;
80272;SDS011;69574;45.328;9.598;2023-10-09T13:45:28;15.23;;;4.43;;
80272;SDS011;69574;45.328;9.598;2023-10-09T13:47:54;13.10;;;4.20;;
80272;SDS011;69574;45.328;9.598;2023-10-09T13:52:47;17.23;;;3.85;;
80272;SDS011;69574;45.328;9.598;2023-10-09T13:57:43;20.75;;;4.45;;
80272;SDS011;69574;45.328;9.598;2023-10-09T14:00:11;16.45;;;4.05;;
80272;SDS011;69574;45.328;9.598;2023-10-09T14:02:37;16.63;;;4.47;;
80272;SDS011;69574;45.328;9.598;2023-10-09T14:05:03;18.35;;;4.93;;
80272;SDS011;69574;45.328;9.598;2023-10-09T14:07:29;24.45;;;5.00;;
80272;SDS011;69574;45.328;9.598;2023-10-09T14:09:54;11.93;;;4.35;;
80272;SDS011;69574;45.328;9.598;2023-10-09T14:12:20;14.40;;;3.88;;
80272;SDS011;69574;45.328;9.598;2023-10-09T14:14:48;15.13;;;3.47;;
80272;SDS011;69574;45.328;9.598;2023-10-09T14:17:14;13.52;;;3.95;;
80272;SDS011;69574;45.328;9.598;2023-10-09T14:19:47;12.95;;;4.38;;
80272;SDS011;69574;45.328;9.598;2023-10-09T14:22:12;14.85;;;4.10;;
80272;SDS011;69574;45.328;9.598;2023-10-09T14:24:40;14.68;;;4.00;;
80272;SDS011;69574;45.328;9.598;2023-10-09T14:27:09;18.92;;;4.20;;
80272;SDS011;69574;45.328;9.598;2023-10-09T14:29:40;19.20;;;4.07;;
80272;SDS011;69574;45.328;9.598;2023-10-09T14:32:09;22.40;;;4.40;;
80272;SDS011;69574;45.328;9.598;2023-10-09T14:34:38;40.83;;;6.35;;
80272;SDS011;69574;45.328;9.598;2023-10-09T14:37:08;26.60;;;5.32;;
80272;SDS011;69574;45.328;9.598;2023-10-09T14:39:36;25.13;;;4.90;;
80272;SDS011;69574;45.328;9.598;2023-10-09T14:42:02;23.70;;;4.00;;
80272;SDS011;69574;45.328;9.598;2023-10-09T14:44:32;35.92;;;5.72;;
80272;SDS011;69574;45.328;9.598;2023-10-09T14:46:57;27.67;;;4.90;;
80272;SDS011;69574;45.328;9.598;2023-10-09T14:49:25;23.88;;;5.07;;
80272;SDS011;69574;45.328;9.598;2023-10-09T14:51:50;16.73;;;4.40;;
80272;SDS011;69574;45.328;9.598;2023-10-09T14:54:16;11.30;;;3.85;;
80272;SDS011;69574;45.328;9.598;2023-10-09T14:56:43;12.02;;;4.05;;
80272;SDS011;69574;45.328;9.598;2023-10-09T14:59:11;18.70;;;4.65;;
80272;SDS011;69574;45.328;9.598;2023-10-09T15:01:37;16.85;;;4.40;;
80272;SDS011;69574;45.328;9.598;2023-10-09T15:04:02;14.45;;;3.78;;
80272;SDS011;69574;45.328;9.598;2023-10-09T15:08:57;16.38;;;4.20;;
80272;SDS011;69574;45.328;9.598;2023-10-09T15:11:23;18.15;;;4.35;;
80272;SDS011;69574;45.328;9.598;2023-10-09T15:13:50;22.48;;;5.03;;
80272;SDS011;69574;45.328;9.598;2023-10-09T15:16:17;13.15;;;4.03;;
80272;SDS011;69574;45.328;9.598;2023-10-09T15:18:42;40.33;;;5.78;;
80272;SDS011;69574;45.328;9.598;2023-10-09T15:21:08;22.33;;;4.45;;
80272;SDS011;69574;45.328;9.598;2023-10-09T15:23:34;18.77;;;4.68;;